This is the latest recevied weather packets stored in our database for station/object SQ3VAS-10. If no packets are shown the sender has not sent any weather packets the latest 10 day(s).
| Time | Temp. | Humidity | Pressure | Rain* | Wind** | Luminosity | Snow |
|---|---|---|---|---|---|---|---|
| 1778323792 | 23.89° C | 33% | 1021.5 hPa | - | - | - | - |
| 1778323217 | 26.11° C | 31% | 1021.3 hPa | - | - | - | - |
| 1778322644 | 24.44° C | 31% | 1021.5 hPa | - | - | - | - |
| 1778322069 | 22.22° C | 36% | 1021.7 hPa | - | - | - | - |
| 1778321495 | 24.44° C | 33% | 1021.5 hPa | - | - | - | - |
| 1778320924 | 21.67° C | 36% | 1021.8 hPa | - | - | - | - |
| 1778320351 | 23.89° C | 31% | 1021.7 hPa | - | - | - | - |
| 1778319775 | 27.22° C | 29% | 1021.6 hPa | - | - | - | - |
| 1778319204 | 25° C | 31% | 1021.6 hPa | - | - | - | - |
| 1778318631 | 22.22° C | 34% | 1021.8 hPa | - | - | - | - |
| 1778318056 | 22.78° C | 35% | 1021.8 hPa | - | - | - | - |
| 1778317474 | 20.56° C | 39% | 1021.9 hPa | - | - | - | - |
| 1778316901 | 17.78° C | 50% | 1022.2 hPa | - | - | - | - |
| 1778316328 | 17.22° C | 51% | 1022.4 hPa | - | - | - | - |
| 1778315755 | 16.67° C | 49% | 1022.3 hPa | - | - | - | - |
| 1778315183 | 16.67° C | 52% | 1022.4 hPa | - | - | - | - |
| 1778314611 | 16.67° C | 52% | 1022.4 hPa | - | - | - | - |
| 1778314039 | 16.67° C | 49% | 1022.5 hPa | - | - | - | - |
| 1778313468 | 17.22° C | 50% | 1022.5 hPa | - | - | - | - |
| 1778312901 | 18.89° C | 47% | 1022.4 hPa | - | - | - | - |
| 1778312330 | 21.67° C | 38% | 1022.1 hPa | - | - | - | - |
| 1778311755 | 20.56° C | 43% | 1022.2 hPa | - | - | - | - |
| 1778311184 | 19.44° C | 45% | 1022.5 hPa | - | - | - | - |
| 1778310609 | 19.44° C | 44% | 1022.6 hPa | - | - | - | - |
| 1778310036 | 18.89° C | 46% | 1022.4 hPa | - | - | - | - |
* Rain since midnight (hover to see other rain measurements)
** Current wind speed in m/s (hover to see current wind gust speed)